Time;durP1;ratioP1;P1;durP2;ratioP2;P2;SDS_P1;SDS_P2;PMS_P1;PMS_P2;Temp;Humidity;BMP_temperature;BMP_pressure;BME280_temperature;BME280_humidity;BME280_pressure;Samples;Min_cycle;Max_cycle;Signal;HPM_P1;HPM_P2
2023/12/09 00:02:17;;;;;;;60.07;11.87;;;;;;;;;;5031406;28;20532;-87
2023/12/09 00:04:42;;;;;;;64.37;14.03;;;;;;;;;;5029807;28;20079;-88
2023/12/09 00:07:08;;;;;;;56.63;12.60;;;;;;;;;;5026953;28;20026;-88
2023/12/09 00:09:33;;;;;;;62.20;12.10;;;;;;;;;;5029210;28;20025;-87
2023/12/09 00:11:58;;;;;;;53.80;14.03;;;;;;;;;;5031042;28;20018;-88
2023/12/09 00:14:23;;;;;;;53.70;12.33;;;;;;;;;;5030624;28;20144;-87
2023/12/09 00:16:49;;;;;;;57.30;12.83;;;;;;;;;;5030279;28;20541;-88
2023/12/09 00:19:14;;;;;;;50.53;12.30;;;;;;;;;;5030825;28;20029;-87
2023/12/09 00:21:40;;;;;;;48.23;11.93;;;;;;;;;;5030558;28;20105;-87
2023/12/09 00:24:05;;;;;;;56.97;12.73;;;;;;;;;;5030873;28;20116;-87
2023/12/09 00:26:33;;;;;;;62.33;13.00;;;;;;;;;;5030027;28;20033;-88
2023/12/09 00:28:58;;;;;;;58.05;13.23;;;;;;;;;;5031255;28;20040;-87
2023/12/09 00:31:24;;;;;;;55.27;12.17;;;;;;;;;;5030333;28;20025;-87
2023/12/09 00:33:49;;;;;;;55.10;13.07;;;;;;;;;;5012820;28;20021;-87
2023/12/09 00:36:14;;;;;;;50.13;12.90;;;;;;;;;;5030079;28;20022;-89
2023/12/09 00:38:39;;;;;;;58.37;14.37;;;;;;;;;;5030513;28;20238;-88
2023/12/09 00:41:05;;;;;;;63.92;14.90;;;;;;;;;;5012071;28;20092;-88
2023/12/09 00:43:30;;;;;;;69.97;13.70;;;;;;;;;;5030439;28;20041;-88
2023/12/09 00:45:55;;;;;;;66.17;14.63;;;;;;;;;;5029600;28;20033;-89
2023/12/09 00:48:20;;;;;;;51.10;13.37;;;;;;;;;;5031085;28;20079;-88
2023/12/09 00:50:45;;;;;;;61.90;14.03;;;;;;;;;;5031346;28;20021;-88
2023/12/09 00:53:12;;;;;;;60.53;12.80;;;;;;;;;;5013960;28;20014;-89
2023/12/09 00:55:37;;;;;;;53.03;12.02;;;;;;;;;;5030106;28;20392;-88
2023/12/09 00:58:02;;;;;;;52.37;12.13;;;;;;;;;;5032920;28;20021;-88
2023/12/09 01:00:27;;;;;;;57.10;16.70;;;;;;;;;;5013222;28;20030;-88
2023/12/09 01:02:53;;;;;;;73.93;18.80;;;;;;;;;;5030268;28;20013;-88
2023/12/09 01:05:18;;;;;;;53.10;13.00;;;;;;;;;;5029138;28;20505;-88
2023/12/09 01:07:43;;;;;;;60.40;12.00;;;;;;;;;;5012639;28;20032;-88
2023/12/09 01:10:09;;;;;;;56.63;13.17;;;;;;;;;;5012268;28;20120;-89
2023/12/09 01:12:34;;;;;;;61.37;11.50;;;;;;;;;;5006723;28;20116;-89
2023/12/09 01:14:59;;;;;;;44.07;10.70;;;;;;;;;;5029376;28;20025;-88
2023/12/09 01:17:25;;;;;;;46.70;10.37;;;;;;;;;;5030315;28;20739;-88
2023/12/09 01:19:51;;;;;;;49.85;10.90;;;;;;;;;;5029667;28;20548;-88
2023/12/09 01:22:16;;;;;;;53.17;10.70;;;;;;;;;;5029723;28;20129;-88
2023/12/09 01:24:41;;;;;;;46.37;10.53;;;;;;;;;;5011356;28;20063;-88
2023/12/09 01:27:07;;;;;;;56.10;11.63;;;;;;;;;;5012180;28;20036;-88
2023/12/09 01:29:32;;;;;;;52.20;10.30;;;;;;;;;;5029522;28;20056;-88
2023/12/09 01:31:57;;;;;;;53.87;10.70;;;;;;;;;;5010760;28;20052;-88
2023/12/09 01:34:23;;;;;;;52.80;10.27;;;;;;;;;;5030140;28;20385;-89
2023/12/09 01:36:48;;;;;;;59.67;10.47;;;;;;;;;;5029343;28;20030;-89
2023/12/09 01:39:14;;;;;;;47.87;10.67;;;;;;;;;;5029996;28;20276;-88
2023/12/09 01:41:39;;;;;;;43.30;10.77;;;;;;;;;;5028821;28;20021;-89
2023/12/09 01:44:04;;;;;;;48.80;10.47;;;;;;;;;;5029811;28;20021;-88
2023/12/09 01:46:31;;;;;;;45.53;9.90;;;;;;;;;;5029156;28;20032;-88
2023/12/09 01:48:56;;;;;;;48.10;10.30;;;;;;;;;;5029633;28;20025;-88
2023/12/09 01:51:23;;;;;;;43.80;10.37;;;;;;;;;;5028764;28;20491;-88
2023/12/09 01:53:48;;;;;;;65.90;9.98;;;;;;;;;;5028907;28;20833;-89
2023/12/09 01:56:14;;;;;;;58.30;10.73;;;;;;;;;;5029206;28;20049;-88
2023/12/09 01:58:39;;;;;;;49.30;10.77;;;;;;;;;;5029364;28;20108;-88
2023/12/09 02:01:05;;;;;;;47.47;11.03;;;;;;;;;;5028704;28;20033;-88
2023/12/09 02:03:33;;;;;;;54.30;10.13;;;;;;;;;;5030427;28;20477;-89
2023/12/09 02:05:58;;;;;;;47.05;10.48;;;;;;;;;;5029039;28;20022;-89
2023/12/09 02:08:23;;;;;;;61.07;10.87;;;;;;;;;;5030753;28;20029;-89
2023/12/09 02:10:52;;;;;;;52.77;10.33;;;;;;;;;;5029013;28;20401;-88
2023/12/09 02:13:23;;;;;;;50.80;11.85;;;;;;;;;;5009781;28;20030;-89
2023/12/09 02:15:58;;;;;;;68.18;11.32;;;;;;;;;;5033372;28;20107;-89
2023/12/09 02:18:25;;;;;;;46.10;9.70;;;;;;;;;;5031165;28;20428;-87
2023/12/09 02:20:50;;;;;;;64.17;10.80;;;;;;;;;;5032807;28;20120;-88
2023/12/09 02:23:15;;;;;;;60.17;10.10;;;;;;;;;;5033567;28;20432;-88
2023/12/09 02:25:41;;;;;;;58.60;11.03;;;;;;;;;;5015390;28;20616;-89
2023/12/09 02:28:25;;;;;;;57.13;10.50;;;;;;;;;;5033981;28;20017;-88
2023/12/09 02:30:55;;;;;;;56.97;10.73;;;;;;;;;;5015531;28;20025;-89
2023/12/09 02:33:21;;;;;;;55.53;11.32;;;;;;;;;;5040448;28;20029;-88
2023/12/09 02:35:47;;;;;;;58.57;10.63;;;;;;;;;;5034464;28;20561;-88
2023/12/09 02:38:13;;;;;;;64.25;12.02;;;;;;;;;;5017172;28;20381;-88
2023/12/09 02:40:40;;;;;;;65.75;10.75;;;;;;;;;;5034383;28;20515;-89
2023/12/09 02:43:06;;;;;;;58.08;11.20;;;;;;;;;;5033647;28;20033;-88
2023/12/09 02:45:31;;;;;;;49.10;9.63;;;;;;;;;;5034034;28;20503;-89
2023/12/09 02:47:56;;;;;;;67.10;12.40;;;;;;;;;;5034204;28;20021;-88
2023/12/09 02:50:21;;;;;;;64.23;10.93;;;;;;;;;;5032957;28;20119;-89
2023/12/09 02:52:46;;;;;;;67.20;10.13;;;;;;;;;;5017436;28;20017;-88
2023/12/09 02:55:12;;;;;;;64.67;11.07;;;;;;;;;;5037928;28;20292;-89
2023/12/09 02:57:37;;;;;;;60.90;10.10;;;;;;;;;;5039858;28;20032;-90
2023/12/09 03:00:05;;;;;;;73.03;10.63;;;;;;;;;;5038437;28;20117;-88
2023/12/09 03:02:30;;;;;;;56.17;10.73;;;;;;;;;;5036279;28;20067;-89
2023/12/09 03:04:55;;;;;;;52.97;9.87;;;;;;;;;;5040560;28;20037;-88
2023/12/09 03:07:21;;;;;;;62.83;11.47;;;;;;;;;;5022049;28;20045;-88
2023/12/09 03:09:46;;;;;;;55.20;10.23;;;;;;;;;;5037930;28;20284;-88
2023/12/09 03:12:12;;;;;;;50.27;9.00;;;;;;;;;;5034664;28;20034;-88
2023/12/09 03:14:37;;;;;;;37.63;8.43;;;;;;;;;;5047813;28;20040;-87
2023/12/09 03:17:02;;;;;;;49.77;10.00;;;;;;;;;;5038039;28;20025;-88
2023/12/09 03:19:27;;;;;;;57.63;9.97;;;;;;;;;;5036407;28;20068;-87
2023/12/09 03:21:52;;;;;;;51.17;9.90;;;;;;;;;;5037069;28;20022;-88
2023/12/09 03:24:17;;;;;;;45.40;8.60;;;;;;;;;;5038827;28;20465;-88
2023/12/09 03:26:43;;;;;;;49.77;10.07;;;;;;;;;;5035607;28;20026;-88
2023/12/09 03:29:08;;;;;;;61.03;10.07;;;;;;;;;;5014771;28;20024;-88
2023/12/09 03:31:33;;;;;;;46.93;9.60;;;;;;;;;;5074824;23;20088;-88
2023/12/09 03:33:58;;;;;;;53.77;10.77;;;;;;;;;;4995264;28;20038;-88
2023/12/09 03:36:26;;;;;;;52.33;10.37;;;;;;;;;;5024038;28;20048;-88
2023/12/09 03:38:51;;;;;;;56.40;10.77;;;;;;;;;;5012745;28;20030;-88
2023/12/09 03:41:16;;;;;;;44.13;8.40;;;;;;;;;;4994340;28;20010;-88
2023/12/09 03:43:41;;;;;;;49.27;9.03;;;;;;;;;;5012526;28;20034;-88
2023/12/09 03:46:06;;;;;;;47.97;10.10;;;;;;;;;;5020861;28;20065;-88
2023/12/09 03:48:32;;;;;;;45.63;9.03;;;;;;;;;;5013878;28;20029;-88
2023/12/09 03:50:57;;;;;;;53.80;9.33;;;;;;;;;;4994544;28;20517;-88
2023/12/09 03:53:22;;;;;;;45.87;8.10;;;;;;;;;;5012636;28;20022;-89
2023/12/09 03:55:50;;;;;;;47.67;11.38;;;;;;;;;;5017306;28;20025;-87
2023/12/09 03:58:16;;;;;;;51.50;9.73;;;;;;;;;;5032690;28;20477;-87
2023/12/09 04:00:41;;;;;;;52.85;9.85;;;;;;;;;;5029458;28;20101;-88
2023/12/09 04:03:06;;;;;;;50.20;9.20;;;;;;;;;;5011830;28;20026;-88
2023/12/09 04:05:31;;;;;;;73.30;13.40;;;;;;;;;;5011512;28;20033;-88
2023/12/09 04:07:56;;;;;;;61.73;10.23;;;;;;;;;;5012270;28;20017;-88
2023/12/09 04:10:22;;;;;;;55.23;9.23;;;;;;;;;;5011594;28;20025;-88
2023/12/09 04:12:47;;;;;;;63.97;9.70;;;;;;;;;;5009419;28;20401;-88
2023/12/09 04:15:12;;;;;;;48.00;10.23;;;;;;;;;;4994028;28;20056;-88
2023/12/09 04:17:37;;;;;;;52.73;10.13;;;;;;;;;;4994261;28;20045;-88
2023/12/09 04:20:05;;;;;;;54.97;9.53;;;;;;;;;;5011617;28;20037;-88
2023/12/09 04:22:30;;;;;;;42.53;8.77;;;;;;;;;;4998816;28;20076;-88
2023/12/09 04:24:55;;;;;;;49.13;9.40;;;;;;;;;;5010885;28;20057;-86
2023/12/09 04:27:21;;;;;;;48.03;9.23;;;;;;;;;;5011427;28;20629;-89
2023/12/09 04:29:46;;;;;;;46.80;8.67;;;;;;;;;;5011589;28;20470;-89
2023/12/09 04:32:11;;;;;;;50.40;8.50;;;;;;;;;;5082995;22;20049;-87
2023/12/09 04:34:37;;;;;;;41.70;8.23;;;;;;;;;;5068532;28;20021;-88
2023/12/09 04:37:03;;;;;;;40.45;7.10;;;;;;;;;;5051386;28;20047;-88
2023/12/09 04:39:28;;;;;;;42.77;6.80;;;;;;;;;;5060924;28;20408;-87
2023/12/09 04:44:28;;;;;;;54.28;10.85;;;;;;;;;;5165604;23;19990;-87
2023/12/09 04:46:54;;;;;;;44.80;8.27;;;;;;;;;;5031368;28;20449;-88
2023/12/09 04:49:28;;;;;;;50.23;8.17;;;;;;;;;;5032789;28;20034;-87
2023/12/09 04:51:53;;;;;;;42.30;7.70;;;;;;;;;;5009777;28;20622;-87
2023/12/09 04:54:18;;;;;;;46.13;8.83;;;;;;;;;;5011776;28;20018;-88
2023/12/09 04:56:43;;;;;;;47.30;9.67;;;;;;;;;;5025068;28;20021;-88
2023/12/09 04:59:09;;;;;;;62.07;11.87;;;;;;;;;;5012876;28;20021;-87
2023/12/09 05:01:34;;;;;;;54.27;10.13;;;;;;;;;;5030043;28;20549;-88
2023/12/09 05:04:02;;;;;;;58.10;8.93;;;;;;;;;;5012440;28;20088;-88
2023/12/09 05:06:27;;;;;;;51.13;7.57;;;;;;;;;;5011667;28;20060;-88
2023/12/09 05:08:53;;;;;;;49.17;7.90;;;;;;;;;;5030550;28;20049;-88
2023/12/09 05:11:19;;;;;;;49.10;9.20;;;;;;;;;;5030369;28;20028;-88
2023/12/09 05:13:47;;;;;;;47.27;8.10;;;;;;;;;;5011519;28;20060;-88
2023/12/09 05:16:12;;;;;;;50.20;7.57;;;;;;;;;;5028697;28;20026;-87
2023/12/09 05:18:37;;;;;;;35.87;6.67;;;;;;;;;;5029015;28;20033;-87
2023/12/09 05:21:05;;;;;;;44.50;8.00;;;;;;;;;;5029914;28;20112;-88
2023/12/09 05:23:31;;;;;;;41.90;7.28;;;;;;;;;;5009534;28;20463;-87
2023/12/09 05:25:56;;;;;;;41.53;7.83;;;;;;;;;;5025859;28;20026;-87
2023/12/09 05:28:21;;;;;;;41.53;8.07;;;;;;;;;;5029341;28;20025;-87
2023/12/09 05:30:48;;;;;;;52.03;8.17;;;;;;;;;;5029203;28;20029;-87
2023/12/09 05:33:13;;;;;;;46.30;6.60;;;;;;;;;;5011953;28;20114;-87
2023/12/09 05:35:38;;;;;;;40.70;7.10;;;;;;;;;;5029819;28;20114;-87
2023/12/09 05:38:04;;;;;;;46.90;8.90;;;;;;;;;;5012916;28;20037;-88
2023/12/09 05:40:29;;;;;;;43.63;7.70;;;;;;;;;;5000726;28;20022;-87
2023/12/09 05:42:54;;;;;;;46.33;6.80;;;;;;;;;;5011135;28;20059;-87
2023/12/09 05:45:19;;;;;;;48.43;8.23;;;;;;;;;;5030321;28;20040;-87
2023/12/09 05:47:44;;;;;;;31.07;6.23;;;;;;;;;;5028850;28;20481;-87
2023/12/09 05:50:10;;;;;;;41.97;8.80;;;;;;;;;;5024994;28;20048;-87
2023/12/09 05:52:35;;;;;;;47.92;8.23;;;;;;;;;;5019700;28;20443;-87
2023/12/09 05:55:00;;;;;;;48.97;9.50;;;;;;;;;;5028265;28;20104;-87
2023/12/09 05:57:26;;;;;;;57.53;8.17;;;;;;;;;;5026661;28;20515;-88
2023/12/09 05:59:51;;;;;;;36.10;6.73;;;;;;;;;;5023645;28;20548;-87
2023/12/09 06:02:16;;;;;;;43.67;6.60;;;;;;;;;;5028831;28;20028;-87
2023/12/09 06:04:42;;;;;;;37.50;6.80;;;;;;;;;;5005033;28;20079;-87
2023/12/09 06:07:07;;;;;;;47.57;6.73;;;;;;;;;;5026453;28;20014;-87
2023/12/09 06:09:32;;;;;;;41.70;8.27;;;;;;;;;;5029762;28;20624;-87
2023/12/09 06:11:57;;;;;;;38.03;5.97;;;;;;;;;;5028803;28;20025;-87
2023/12/09 06:14:22;;;;;;;38.17;6.60;;;;;;;;;;5030781;28;20030;-88
2023/12/09 06:16:48;;;;;;;42.10;6.00;;;;;;;;;;5026831;28;20009;-88
2023/12/09 06:19:13;;;;;;;43.00;7.30;;;;;;;;;;5011990;28;20451;-88
2023/12/09 06:21:38;;;;;;;36.97;6.57;;;;;;;;;;5028951;28;20323;-88
2023/12/09 06:24:03;;;;;;;40.77;6.87;;;;;;;;;;5029830;28;20118;-89
2023/12/09 06:26:29;;;;;;;49.70;7.60;;;;;;;;;;5027382;28;20022;-88
2023/12/09 06:28:54;;;;;;;42.27;6.97;;;;;;;;;;5029803;28;20014;-89
2023/12/09 06:31:19;;;;;;;42.13;5.70;;;;;;;;;;5028131;28;20017;-86
2023/12/09 06:33:44;;;;;;;41.60;6.60;;;;;;;;;;5030039;28;20397;-87
2023/12/09 06:36:09;;;;;;;45.23;6.70;;;;;;;;;;5028493;28;20430;-89
2023/12/09 06:38:39;;;;;;;41.40;6.97;;;;;;;;;;5029433;28;20109;-88
2023/12/09 06:41:04;;;;;;;42.22;7.60;;;;;;;;;;5011380;28;20021;-88
2023/12/09 06:43:29;;;;;;;38.93;7.60;;;;;;;;;;5030462;28;20531;-87
2023/12/09 06:45:55;;;;;;;38.47;8.00;;;;;;;;;;5032303;28;20029;-87
2023/12/09 06:48:20;;;;;;;42.63;9.13;;;;;;;;;;5027202;28;20022;-88
2023/12/09 06:50:45;;;;;;;39.67;8.00;;;;;;;;;;5027568;28;20033;-87
2023/12/09 06:53:13;;;;;;;37.73;7.27;;;;;;;;;;5029322;28;20029;-87
2023/12/09 06:55:38;;;;;;;43.00;8.63;;;;;;;;;;5029648;28;20018;-90
2023/12/09 06:58:04;;;;;;;38.57;7.00;;;;;;;;;;5030824;28;20109;-87
2023/12/09 07:00:29;;;;;;;54.30;9.93;;;;;;;;;;4999132;28;20096;-87
2023/12/09 07:02:55;;;;;;;21.77;5.80;;;;;;;;;;5033481;28;20426;-88
2023/12/09 07:05:20;;;;;;;31.10;6.80;;;;;;;;;;5032972;28;20029;-87
2023/12/09 07:07:45;;;;;;;26.53;5.93;;;;;;;;;;5014484;28;20397;-86
2023/12/09 07:10:11;;;;;;;36.83;7.53;;;;;;;;;;5030564;28;20022;-87
2023/12/09 07:12:36;;;;;;;37.40;6.80;;;;;;;;;;5032474;28;20104;-87
2023/12/09 07:15:05;;;;;;;34.93;7.00;;;;;;;;;;5014963;28;20022;-86
2023/12/09 07:17:30;;;;;;;41.63;9.85;;;;;;;;;;5016981;28;20018;-89
2023/12/09 07:19:56;;;;;;;32.03;6.13;;;;;;;;;;5035926;28;20159;-88
2023/12/09 07:22:22;;;;;;;33.42;6.85;;;;;;;;;;5011820;28;20030;-88
2023/12/09 07:24:47;;;;;;;39.00;5.83;;;;;;;;;;5033378;28;20068;-88
2023/12/09 07:27:12;;;;;;;33.63;7.40;;;;;;;;;;5035265;28;20021;-90
2023/12/09 07:29:37;;;;;;;33.43;7.33;;;;;;;;;;5032059;28;20072;-88
2023/12/09 07:32:03;;;;;;;31.27;6.77;;;;;;;;;;5033936;28;20021;-87
2023/12/09 07:34:29;;;;;;;40.70;6.40;;;;;;;;;;5014021;28;20024;-89
2023/12/09 07:36:54;;;;;;;28.03;5.70;;;;;;;;;;4997925;28;20026;-89
2023/12/09 07:39:19;;;;;;;25.23;5.87;;;;;;;;;;5007542;28;20234;-89
2023/12/09 07:41:44;;;;;;;31.73;7.10;;;;;;;;;;5031985;28;20017;-85
2023/12/09 07:44:10;;;;;;;27.30;6.27;;;;;;;;;;5032618;28;20041;-85
2023/12/09 07:46:36;;;;;;;30.20;6.07;;;;;;;;;;5032283;28;20017;-85
2023/12/09 07:49:01;;;;;;;34.35;6.95;;;;;;;;;;5022844;28;20109;-85
2023/12/09 07:51:26;;;;;;;29.83;5.87;;;;;;;;;;5025920;28;20022;-88
2023/12/09 07:53:51;;;;;;;39.40;6.93;;;;;;;;;;5012272;28;20549;-85
2023/12/09 07:56:17;;;;;;;33.50;6.53;;;;;;;;;;5013273;28;20021;-85
2023/12/09 07:58:42;;;;;;;31.57;5.33;;;;;;;;;;5030811;28;20105;-85
2023/12/09 08:01:08;;;;;;;27.37;5.27;;;;;;;;;;5030315;28;20763;-86
2023/12/09 08:03:34;;;;;;;38.37;5.73;;;;;;;;;;5028598;28;20393;-86
2023/12/09 08:06:00;;;;;;;37.33;6.13;;;;;;;;;;5015701;28;20287;-87
2023/12/09 08:08:25;;;;;;;30.20;5.83;;;;;;;;;;5030614;28;20022;-86
2023/12/09 08:10:50;;;;;;;25.50;6.28;;;;;;;;;;5007214;28;20021;-86
2023/12/09 08:13:15;;;;;;;25.47;4.90;;;;;;;;;;5029002;28;20116;-86
2023/12/09 08:15:43;;;;;;;22.30;4.97;;;;;;;;;;5032457;28;20025;-89
2023/12/09 08:18:09;;;;;;;27.67;5.40;;;;;;;;;;5031814;28;20017;-86
2023/12/09 08:20:34;;;;;;;19.30;4.43;;;;;;;;;;5030520;28;20024;-86
2023/12/09 08:23:00;;;;;;;31.60;6.47;;;;;;;;;;5031790;28;20022;-86
2023/12/09 08:25:25;;;;;;;28.75;5.10;;;;;;;;;;5030543;28;20034;-86
2023/12/09 08:27:50;;;;;;;25.80;4.70;;;;;;;;;;5013304;28;20524;-86
2023/12/09 08:30:16;;;;;;;23.97;3.80;;;;;;;;;;5028355;28;20025;-86
2023/12/09 08:32:43;;;;;;;22.13;4.07;;;;;;;;;;5731408;22;20028;-85
2023/12/09 08:35:08;;;;;;;20.48;3.42;;;;;;;;;;5033454;28;20526;-86
2023/12/09 08:43:11;;;;;;;18.80;3.75;;;;;;;;;;5831925;22;20084;-86
2023/12/09 08:59:00;;;;;;;22.88;3.38;;;;;;;;;;5504261;23;20501;-84
2023/12/09 09:01:25;;;;;;;16.73;3.07;;;;;;;;;;5026471;28;20030;-87
2023/12/09 09:03:50;;;;;;;20.27;2.83;;;;;;;;;;5029215;28;20034;-87
2023/12/09 09:06:17;;;;;;;16.80;2.78;;;;;;;;;;5004079;28;20088;-89
2023/12/09 09:08:42;;;;;;;23.38;5.97;;;;;;;;;;4998807;28;20017;-86
2023/12/09 09:13:44;;;;;;;20.23;4.30;;;;;;;;;;5434675;22;20408;-88
2023/12/09 09:16:19;;;;;;;21.83;4.22;;;;;;;;;;5029888;28;20041;-90
2023/12/09 09:18:44;;;;;;;20.17;5.05;;;;;;;;;;5024596;28;20017;-88
2023/12/09 09:21:10;;;;;;;22.83;5.87;;;;;;;;;;5020594;28;20022;-90
2023/12/09 09:23:41;;;;;;;18.10;4.43;;;;;;;;;;4999531;28;20117;-92
2023/12/09 09:26:10;;;;;;;31.65;11.18;;;;;;;;;;5012064;28;20088;-96
2023/12/09 09:28:43;;;;;;;14.35;3.80;;;;;;;;;;4991676;28;20014;-87
2023/12/09 09:31:10;;;;;;;16.98;3.30;;;;;;;;;;5010133;28;20028;-83
2023/12/09 09:33:37;;;;;;;16.52;2.33;;;;;;;;;;5008912;28;20018;-89
2023/12/09 09:36:03;;;;;;;18.92;3.30;;;;;;;;;;4992460;28;20021;-89
2023/12/09 09:38:28;;;;;;;18.17;2.77;;;;;;;;;;4987348;28;20030;-89
2023/12/09 09:40:54;;;;;;;15.43;2.37;;;;;;;;;;4983336;28;20288;-89
2023/12/09 09:43:21;;;;;;;12.10;2.17;;;;;;;;;;4990566;28;20057;-90
2023/12/09 09:45:47;;;;;;;17.65;2.88;;;;;;;;;;4991576;28;20033;-95
2023/12/09 09:48:15;;;;;;;16.00;2.00;;;;;;;;;;4993328;28;20614;-90
2023/12/09 09:50:44;;;;;;;7.90;2.03;;;;;;;;;;5010138;28;20043;-90
2023/12/09 09:53:11;;;;;;;15.80;2.40;;;;;;;;;;5010410;28;20413;-89
2023/12/09 09:55:39;;;;;;;10.38;2.22;;;;;;;;;;5010367;28;20017;-89
2023/12/09 09:58:05;;;;;;;13.90;2.10;;;;;;;;;;5009381;28;20026;-89
2023/12/09 10:00:35;;;;;;;13.73;2.33;;;;;;;;;;4993594;28;20025;-90
2023/12/09 10:03:01;;;;;;;14.80;2.40;;;;;;;;;;5011409;28;20029;-90
2023/12/09 10:05:26;;;;;;;13.57;2.10;;;;;;;;;;5008144;28;20196;-90
2023/12/09 10:07:55;;;;;;;11.30;2.47;;;;;;;;;;5059011;22;20768;-92
2023/12/09 10:10:21;;;;;;;11.88;1.90;;;;;;;;;;5050912;28;20025;-93
2023/12/09 10:12:46;;;;;;;18.07;2.37;;;;;;;;;;5040887;28;20026;-90
2023/12/09 10:15:13;;;;;;;8.95;1.65;;;;;;;;;;5031143;28;20052;-90
2023/12/09 10:17:47;;;;;;;10.60;1.90;;;;;;;;;;5029963;28;20021;-91
2023/12/09 10:20:13;;;;;;;11.77;2.08;;;;;;;;;;5028326;28;20025;-89
2023/12/09 10:22:41;;;;;;;8.80;1.88;;;;;;;;;;5039962;28;20067;-90
2023/12/09 10:25:07;;;;;;;15.10;2.45;;;;;;;;;;5024731;28;20087;-91
2023/12/09 10:27:32;;;;;;;14.70;2.33;;;;;;;;;;5029607;28;20446;-90
2023/12/09 10:30:32;;;;;;;13.07;2.30;;;;;;;;;;5029894;28;20013;-90
2023/12/09 10:32:59;;;;;;;10.33;1.93;;;;;;;;;;5038063;28;20031;-89
2023/12/09 10:38:27;;;;;;;14.88;2.05;;;;;;;;;;5037060;22;20064;-93
2023/12/09 10:40:55;;;;;;;10.97;2.10;;;;;;;;;;5341212;22;20017;-89
2023/12/09 10:43:20;;;;;;;11.55;2.20;;;;;;;;;;5032253;28;20112;-90
2023/12/09 10:45:46;;;;;;;8.43;1.53;;;;;;;;;;5038132;28;20029;-89
2023/12/09 10:48:12;;;;;;;10.57;2.15;;;;;;;;;;5046577;28;20021;-90
2023/12/09 10:50:40;;;;;;;15.43;2.30;;;;;;;;;;5036304;28;20033;-91
2023/12/09 10:53:05;;;;;;;14.57;2.55;;;;;;;;;;5029894;28;20444;-89
2023/12/09 10:55:31;;;;;;;7.23;1.50;;;;;;;;;;5035823;28;20026;-93
2023/12/09 10:57:57;;;;;;;16.27;2.60;;;;;;;;;;5016700;28;20409;-89
2023/12/09 11:00:24;;;;;;;11.18;2.10;;;;;;;;;;5035143;28;20017;-89
2023/12/09 11:02:50;;;;;;;13.17;1.80;;;;;;;;;;5028485;28;20018;-89
2023/12/09 11:05:16;;;;;;;9.85;2.50;;;;;;;;;;5016848;28;20058;-90
2023/12/09 11:07:41;;;;;;;10.90;1.57;;;;;;;;;;4996750;28;20481;-89
2023/12/09 11:21:29;;;;;;;8.30;1.27;;;;;;;;;;5296954;22;20590;-90
2023/12/09 11:23:54;;;;;;;5.20;1.20;;;;;;;;;;5042584;28;20021;-89
2023/12/09 11:29:15;;;;;;;7.57;1.58;;;;;;;;;;5034942;28;20039;-91
2023/12/09 11:32:15;;;;;;;11.27;1.50;;;;;;;;;;5013584;28;20026;-91
2023/12/09 11:34:42;;;;;;;12.40;2.35;;;;;;;;;;5035145;28;20029;-91
2023/12/09 11:37:11;;;;;;;8.40;1.70;;;;;;;;;;5035906;28;20696;-92
2023/12/09 11:42:12;;;;;;;8.10;1.40;;;;;;;;;;5232093;22;20432;-95
2023/12/09 11:44:38;;;;;;;10.07;1.60;;;;;;;;;;5061084;28;20036;-92
2023/12/09 11:47:04;;;;;;;11.93;1.80;;;;;;;;;;5069745;28;20005;-94
2023/12/09 11:49:33;;;;;;;8.77;1.63;;;;;;;;;;5069919;28;20081;-95
2023/12/09 12:17:18;;;;;;;7.65;1.73;;;;;;;;;;5060226;28;20032;-93
2023/12/09 12:49:35;;;;;;;;;;;;;;;;;;;;;
2023/12/09 12:52:03;;;;;;;4.07;1.17;;;;;;;;;;5074958;22;20037;-87
2023/12/09 12:54:28;;;;;;;3.40;0.90;;;;;;;;;;5032371;28;20021;-85
2023/12/09 12:56:53;;;;;;;4.90;0.90;;;;;;;;;;5031986;28;20068;-85
2023/12/09 12:59:19;;;;;;;5.17;1.17;;;;;;;;;;5031343;28;20268;-84
2023/12/09 13:01:44;;;;;;;5.43;1.53;;;;;;;;;;5084422;22;20051;-85
2023/12/09 13:04:09;;;;;;;6.33;1.37;;;;;;;;;;5050143;28;20033;-86
2023/12/09 13:06:34;;;;;;;2.73;0.90;;;;;;;;;;5051166;28;20032;-87
2023/12/09 13:09:00;;;;;;;4.00;1.00;;;;;;;;;;5049293;28;20021;-86
2023/12/09 13:11:25;;;;;;;3.20;0.80;;;;;;;;;;5045682;28;20041;-86
2023/12/09 13:13:50;;;;;;;2.47;1.10;;;;;;;;;;5032227;28;20025;-86
2023/12/09 13:16:16;;;;;;;6.37;1.20;;;;;;;;;;5042046;28;20103;-86
2023/12/09 13:18:41;;;;;;;2.85;0.80;;;;;;;;;;5046614;28;20056;-87
2023/12/09 13:21:09;;;;;;;1.60;0.83;;;;;;;;;;5046201;28;20066;-88
2023/12/09 13:23:34;;;;;;;3.78;0.73;;;;;;;;;;5047142;28;20541;-87
2023/12/09 13:26:00;;;;;;;1.37;0.60;;;;;;;;;;5048966;28;20124;-86
2023/12/09 13:28:27;;;;;;;3.50;0.80;;;;;;;;;;5048112;28;20052;-85
2023/12/09 13:30:52;;;;;;;1.73;0.70;;;;;;;;;;5048054;28;20104;-86
2023/12/09 13:33:17;;;;;;;3.23;1.10;;;;;;;;;;5049650;28;20739;-86
2023/12/09 13:35:43;;;;;;;2.77;0.77;;;;;;;;;;5048010;28;20017;-86
2023/12/09 13:38:08;;;;;;;3.00;0.80;;;;;;;;;;5049060;28;20542;-84
2023/12/09 13:40:33;;;;;;;2.77;0.90;;;;;;;;;;5043238;28;20029;-85
2023/12/09 13:42:59;;;;;;;1.47;0.80;;;;;;;;;;5048479;28;20087;-86
2023/12/09 13:45:24;;;;;;;5.07;1.07;;;;;;;;;;5049250;28;20483;-86
2023/12/09 13:47:49;;;;;;;2.58;0.80;;;;;;;;;;5022941;28;20013;-85
2023/12/09 13:50:16;;;;;;;5.20;1.00;;;;;;;;;;5047873;28;20033;-86
2023/12/09 13:52:41;;;;;;;5.40;0.95;;;;;;;;;;5047926;28;20021;-86
2023/12/09 13:55:07;;;;;;;3.97;0.93;;;;;;;;;;5047830;28;20033;-85
2023/12/09 13:57:32;;;;;;;2.30;0.87;;;;;;;;;;5035603;28;20021;-85
2023/12/09 14:00:07;;;;;;;2.55;0.75;;;;;;;;;;5234967;22;20441;-84
2023/12/09 14:02:34;;;;;;;2.43;0.80;;;;;;;;;;5039135;28;20018;-84
2023/12/09 14:04:59;;;;;;;3.30;1.00;;;;;;;;;;5031490;28;20041;-85
2023/12/09 14:07:24;;;;;;;2.40;0.80;;;;;;;;;;5033739;28;20074;-85
2023/12/09 14:09:53;;;;;;;1.83;0.70;;;;;;;;;;5172535;22;20053;-85
2023/12/09 14:12:18;;;;;;;1.83;0.70;;;;;;;;;;5014980;28;20528;-85
2023/12/09 14:14:53;;;;;;;3.47;0.70;;;;;;;;;;5014890;28;20018;-83
2023/12/09 14:17:18;;;;;;;3.28;1.35;;;;;;;;;;5016032;28;20022;-84
2023/12/09 14:19:44;;;;;;;3.83;1.20;;;;;;;;;;5014088;28;20044;-84
2023/12/09 14:22:09;;;;;;;2.45;0.82;;;;;;;;;;4999729;28;20156;-84
2023/12/09 14:24:44;;;;;;;2.30;1.17;;;;;;;;;;4995427;28;20034;-84
2023/12/09 14:27:09;;;;;;;2.70;1.08;;;;;;;;;;5000464;28;20179;-84
2023/12/09 14:35:41;;;;;;;3.85;1.20;;;;;;;;;;5004804;28;20040;-86
2023/12/09 14:46:49;;;;;;;2.90;1.00;;;;;;;;;;5251467;23;20587;-85
2023/12/09 14:49:14;;;;;;;1.52;1.00;;;;;;;;;;5016055;28;20042;-84
2023/12/09 14:51:41;;;;;;;1.33;1.10;;;;;;;;;;5013561;28;20046;-84
2023/12/09 14:54:07;;;;;;;2.05;1.38;;;;;;;;;;4982513;28;20034;-84
2023/12/09 14:56:33;;;;;;;1.50;0.93;;;;;;;;;;4997121;28;20021;-84
2023/12/09 14:58:58;;;;;;;1.52;0.90;;;;;;;;;;5014040;28;20030;-86
2023/12/09 15:01:23;;;;;;;1.23;0.90;;;;;;;;;;5014900;28;20018;-86
2023/12/09 15:03:48;;;;;;;1.00;0.90;;;;;;;;;;5014735;28;20645;-86
2023/12/09 15:06:14;;;;;;;1.13;1.03;;;;;;;;;;5013555;28;20492;-86
2023/12/09 15:08:39;;;;;;;2.83;1.07;;;;;;;;;;5013148;28;20022;-86
2023/12/09 15:11:04;;;;;;;2.20;1.40;;;;;;;;;;5014250;28;20041;-87
2023/12/09 15:13:30;;;;;;;1.55;1.02;;;;;;;;;;5014710;28;20109;-86
2023/12/09 15:15:55;;;;;;;2.23;1.20;;;;;;;;;;5014664;28;20018;-90
2023/12/09 15:36:10;;;;;;;2.70;1.42;;;;;;;;;;5017585;28;20492;-86
2023/12/09 15:38:36;;;;;;;2.00;1.30;;;;;;;;;;5017250;28;20038;-86
2023/12/09 15:41:01;;;;;;;2.30;1.30;;;;;;;;;;5012874;28;20481;-86
2023/12/09 15:43:26;;;;;;;1.20;1.10;;;;;;;;;;4996622;28;20023;-86
2023/12/09 15:45:51;;;;;;;1.30;1.03;;;;;;;;;;4989521;28;20141;-87
2023/12/09 15:48:17;;;;;;;3.67;1.87;;;;;;;;;;5008363;28;20103;-88
2023/12/09 15:50:42;;;;;;;3.83;1.90;;;;;;;;;;4993669;28;20110;-86
2023/12/09 15:53:08;;;;;;;3.80;2.43;;;;;;;;;;4992999;28;20019;-87
2023/12/09 15:55:33;;;;;;;5.93;2.70;;;;;;;;;;4995487;28;20117;-86
2023/12/09 15:57:59;;;;;;;5.03;2.53;;;;;;;;;;4993610;28;20201;-87
2023/12/09 16:00:27;;;;;;;3.97;2.10;;;;;;;;;;4991960;28;20034;-86
2023/12/09 16:02:53;;;;;;;8.82;4.43;;;;;;;;;;4991797;28;20025;-85
2023/12/09 16:05:18;;;;;;;4.75;2.90;;;;;;;;;;5004185;28;20411;-87
2023/12/09 16:07:44;;;;;;;6.23;2.90;;;;;;;;;;5010204;28;20022;-86
2023/12/09 16:10:09;;;;;;;4.70;2.60;;;;;;;;;;4993300;28;20057;-88
2023/12/09 16:12:34;;;;;;;8.70;3.40;;;;;;;;;;4991815;28;20064;-87
2023/12/09 16:15:00;;;;;;;3.43;2.03;;;;;;;;;;4993057;28;20058;-86
2023/12/09 16:17:25;;;;;;;5.73;3.83;;;;;;;;;;5000910;28;20029;-87
2023/12/09 16:19:50;;;;;;;3.60;2.40;;;;;;;;;;5003522;28;20068;-89
2023/12/09 16:22:16;;;;;;;5.60;3.33;;;;;;;;;;5005024;28;20148;-86
2023/12/09 16:24:41;;;;;;;5.22;3.17;;;;;;;;;;5009849;28;20033;-86
2023/12/09 16:27:06;;;;;;;3.33;2.40;;;;;;;;;;4996917;28;20073;-87
2023/12/09 16:29:32;;;;;;;4.47;2.40;;;;;;;;;;4999303;28;20034;-86
2023/12/09 16:31:57;;;;;;;3.43;2.40;;;;;;;;;;5005319;28;20096;-86
2023/12/09 16:34:22;;;;;;;3.70;2.10;;;;;;;;;;5010519;28;20156;-85
2023/12/09 16:36:47;;;;;;;3.13;1.80;;;;;;;;;;4998904;28;20022;-85